• Join FlightAware (Why Join?)
  • Login
  • US Flag 
02:46AM EDT


 

Airport Tracker/Info


-or-


 

Live Flight TrackerFlight Track Log ✈ AZU2482 ✈ 14-Jul-2014 ✈ SBGR / GRU - SBBH / PLU

Flight Track Log - Related Links

Times and Time Zones

All times are in EDT time to prevent confusion due to time zone crossing. See the AZU2482 flight status page for this flight to view local times or setup timezone preferences in your user account.

Time Position Orientation Groundspeed Altitude Reporting Facility
EDT Latitude Longitude Course Direction KTS MPH feet Rate Location/Type
08:05AM -23.4286 -46.4618 74° East 114 131 2,600  Level FlightAware ADS-B (SBSP / CGH)
08:06AM -23.4264 -46.4534 76° East 114 131 3,000 1,620 Climbing FlightAware ADS-B (SBSP / CGH)
08:06AM -23.4260 -46.4515 76° East 113 130 3,100 1,260 Climbing FlightAware ADS-B
08:06AM -23.4241 -46.4445 73° East 122 140 3,300 780 Climbing FlightAware ADS-B (SBSP / CGH)
08:06AM -23.4237 -46.4431 73° East 126 145 3,300 720 Level FlightAware ADS-B
08:06AM -23.4213 -46.4352 71° East 137 158 3,500 720 Climbing FlightAware ADS-B (SBSP / CGH)
08:06AM -23.4205 -46.4327 71° East 142 163 3,500 420 Level FlightAware ADS-B
08:06AM -23.4181 -46.4250 71° East 155 178 3,600 540 Climbing FlightAware ADS-B (SBSP / CGH)
08:06AM -23.4159 -46.4178 72° East 158 182 3,700 1,200 Climbing FlightAware ADS-B
08:07AM -23.4145 -46.4132 71° East 156 180 3,900 1,260 Climbing FlightAware ADS-B (SBSP / CGH)
08:07AM -23.4115 -46.4037 72° East 161 185 4,100 1,080 Climbing FlightAware ADS-B
08:07AM -23.4113 -46.4029 71° East 160 184 4,200 1,020 Climbing FlightAware ADS-B (SBSP / CGH)
08:07AM -23.4074 -46.3901 71° East 167 192 4,400 720 Climbing FlightAware ADS-B (SBSP / CGH)
08:07AM -23.4072 -46.3895 72° East 169 194 4,400 840 Level FlightAware ADS-B
08:07AM -23.4037 -46.3779 71° East 171 197 4,600 1,080 Climbing FlightAware ADS-B (SBSP / CGH)
08:07AM -23.4032 -46.3764 72° East 172 198 4,700 1,080 Climbing FlightAware ADS-B
08:08AM -23.3999 -46.3652 72° East 174 200 4,900 1,020 Climbing FlightAware ADS-B (SBSP / CGH)
08:08AM -23.3987 -46.3613 72° East 174 200 5,000 1,260 Climbing FlightAware ADS-B
08:08AM -23.3962 -46.3529 72° East 175 201 5,200 1,140 Climbing FlightAware ADS-B (SBSP / CGH)
08:08AM -23.3923 -46.3400 72° East 176 203 5,500 960 Climbing FlightAware ADS-B (SBSP / CGH)
08:08AM -23.3885 -46.3272 72° East 178 205 5,700 1,140 Climbing FlightAware ADS-B (SBSP / CGH)
08:08AM -23.3868 -46.3216 72° East 180 207 5,900 1,200 Climbing FlightAware ADS-B
08:09AM -23.3845 -46.3142 72° East 179 206 6,000 1,080 Climbing FlightAware ADS-B (SBSP / CGH)
08:09AM -23.3825 -46.3075 72° East 181 208 6,200 1,080 Climbing FlightAware ADS-B
08:09AM -23.3808 -46.3016 71° East 180 207 6,300 1,020 Climbing FlightAware ADS-B (SBSP / CGH)
08:09AM -23.3782 -46.2928 72° East 181 208 6,500 1,200 Climbing FlightAware ADS-B
08:09AM -23.3768 -46.2882 72° East 183 211 6,600 900 Climbing FlightAware ADS-B (SBSP / CGH)
08:09AM -23.3729 -46.2751 72° East 185 213 6,800 1,020 Climbing FlightAware ADS-B (SBSP / CGH)
08:10AM -23.3692 -46.2627 72° East 187 215 7,100 840 Climbing FlightAware ADS-B (SBSP / CGH)
08:10AM -23.3658 -46.2513 72° East 190 219 7,200 780 Climbing FlightAware ADS-B
08:10AM -23.3650 -46.2489 72° East 191 220 7,300 1,320 Climbing FlightAware ADS-B (SBSP / CGH)
08:10AM -23.3607 -46.2341 72° East 189 217 7,600 1,020 Climbing FlightAware ADS-B (SBSP / CGH)
08:10AM -23.3605 -46.2335 72° East 189 217 7,600 1,080 Level FlightAware ADS-B
08:10AM -23.3567 -46.2208 72° East 191 220 7,900 1,020 Climbing FlightAware ADS-B (SBSP / CGH)
08:10AM -23.3561 -46.2189 72° East 191 220 7,900 420 Level FlightAware ADS-B
08:11AM -23.3530 -46.2088 72° East 195 224 8,000 780 Climbing FlightAware ADS-B (SBSP / CGH)
08:11AM -23.3516 -46.2039 72° East 196 226 8,100 720 Climbing FlightAware ADS-B
08:11AM -23.3481 -46.1923 72° East 198 228 8,200 780 Climbing FlightAware ADS-B (SBSP / CGH)
08:11AM -23.3473 -46.1896 72° East 200 230 8,300 780 Climbing FlightAware ADS-B
08:11AM -23.3438 -46.1779 72° East 200 230 8,400 660 Climbing FlightAware ADS-B (SBSP / CGH)
08:11AM -23.3395 -46.1632 72° East 202 232 8,600 960 Climbing FlightAware ADS-B (SBSP / CGH)
08:11AM -23.3365 -46.1534 72° East 204 235 8,800 780 Climbing FlightAware ADS-B
08:12AM -23.3350 -46.1485 72° East 205 236 8,800 660 Level FlightAware ADS-B (SBSP / CGH)
08:12AM -23.3314 -46.1365 72° East 207 238 9,000 780 Climbing FlightAware ADS-B
08:12AM -23.3310 -46.1351 72° East 208 239 9,000 720 Level FlightAware ADS-B (SBSP / CGH)
08:12AM -23.3261 -46.1186 72° East 209 241 9,200 960 Climbing FlightAware ADS-B (SBSP / CGH)
08:12AM -23.3252 -46.1156 72° East 209 241 9,300 1,080 Climbing FlightAware ADS-B
08:12AM -23.3217 -46.1039 72° East 209 241 9,500 660 Climbing FlightAware ADS-B (SBSP / CGH)
08:12AM -23.3199 -46.0980 72° East 210 242 9,500 420 Level FlightAware ADS-B
08:13AM -23.3172 -46.0888 71° East 210 242 9,600 720 Climbing FlightAware ADS-B (SBSP / CGH)
08:13AM -23.3129 -46.0748 72° East 211 243 9,800 900 Climbing FlightAware ADS-B (SBSP / CGH)
08:13AM -23.3120 -46.0715 72° East 211 243 9,900 720 Climbing FlightAware ADS-B
08:13AM -23.3033 -46.0427 71° East 213 245 10,200 780 Climbing FlightAware ADS-B (SBSP / CGH)
08:14AM -23.2975 -46.0257 58° Northeast 213 245 10,500 900 Climbing FlightAware ADS-B
08:14AM -23.2960 -46.0230 55° Northeast 212 244 10,500 480 Level FlightAware ADS-B (SBSP / CGH)
08:14AM -23.2899 -46.0165 36° Northeast 210 242 10,600 660 Climbing FlightAware ADS-B (SBSP / CGH)
08:14AM -23.2820 -46.0125 18° North 209 241 10,700 360 Climbing FlightAware ADS-B (SDAM)
08:14AM -23.2755 -46.0108 13° North 211 243 10,700 420 Level FlightAware ADS-B
08:14AM -23.2700 -46.0096 14° North 209 241 10,800 480 Climbing FlightAware ADS-B (SBSP / CGH)
08:15AM -23.2420 -46.0042 14° North 209 241 11,000 420 Climbing FlightAware ADS-B (SBSP / CGH)
08:15AM -23.2304 -46.0022 North 219 252 11,100 600 Climbing FlightAware ADS-B (SBSP / CGH)
08:15AM -23.2103 -45.9984 10° North 222 255 11,300 600 Climbing FlightAware ADS-B
08:15AM -23.2002 -45.9964 North 225 259 11,400 720 Climbing FlightAware ADS-B (SBSP / CGH)
08:16AM -23.1690 -45.9903 10° North 222 255 11,800 780 Climbing FlightAware ADS-B (SBSP / CGH)
08:16AM -23.1390 -45.9845 10° North 220 253 12,200 600 Climbing FlightAware ADS-B (SBSP / CGH)
08:17AM -23.1112 -45.9791 10° North 222 255 12,400 600 Climbing FlightAware ADS-B
08:17AM -23.1085 -45.9785 10° North 222 255 12,500 720 Climbing FlightAware ADS-B (SBSP / CGH)
08:17AM -23.0776 -45.9725 10° North 220 253 12,800 540 Climbing FlightAware ADS-B (SBSP / CGH)
08:18AM -23.0470 -45.9665 10° North 223 257 13,100 600 Climbing FlightAware ADS-B (SBSP / CGH)
08:18AM -23.0162 -45.9604 10° North 225 259 13,400 600 Climbing FlightAware ADS-B (SBSP / CGH)
08:19AM -22.9857 -45.9545 10° North 225 259 13,700 480 Climbing FlightAware ADS-B (SBSP / CGH)
08:19AM -22.9546 -45.9484 10° North 227 261 13,900 480 Climbing FlightAware ADS-B (SBSP / CGH)
08:20AM -22.9239 -45.9423 10° North 226 260 14,200 600 Climbing FlightAware ADS-B (SBSP / CGH)
08:20AM -22.9136 -45.9403 10° North 227 261 14,300 600 Climbing FlightAware ADS-B
08:20AM -22.8923 -45.9361 10° North 227 261 14,500 600 Climbing FlightAware ADS-B (SBSP / CGH)
08:21AM -22.8741 -45.9326 10° North 229 264 14,700 360 Climbing FlightAware ADS-B
08:21AM -22.8607 -45.9300 10° North 228 262 14,700 360 Level FlightAware ADS-B (SBSP / CGH)
08:21AM -22.8418 -45.9262 10° North 230 265 14,900 600 Climbing FlightAware ADS-B
08:21AM -22.8293 -45.9238 10° North 229 264 15,000 420 Climbing FlightAware ADS-B (SBSP / CGH)
08:22AM -22.7997 -45.9180 10° North 231 266 15,200 480 Climbing FlightAware ADS-B (SBSP / CGH)
08:22AM -22.7659 -45.9113 10° North 231 266 15,500 540 Climbing FlightAware ADS-B (SBSP / CGH)
08:22AM -22.7647 -45.9111 10° North 232 267 15,500 360 Level FlightAware ADS-B
08:23AM -22.7337 -45.9050 10° North 232 267 15,700 360 Climbing FlightAware ADS-B (SBSP / CGH)
08:23AM -22.7016 -45.8986 10° North 232 267 15,900 480 Climbing FlightAware ADS-B (SBSP / CGH)
08:24AM -22.6701 -45.8924 10° North 231 266 16,200 480 Climbing FlightAware ADS-B (SBSP / CGH)
08:24AM -22.6395 -45.8865 10° North 230 265 16,400 420 Climbing FlightAware ADS-B (SBSP / CGH)
08:24AM -22.6287 -45.8843 10° North 231 266 16,500 600 Climbing FlightAware ADS-B
08:25AM -22.6064 -45.8800 10° North 230 265 16,700 420 Climbing FlightAware ADS-B (SBSP / CGH)
08:25AM -22.5760 -45.8740 10° North 231 266 16,900 360 Climbing FlightAware ADS-B (SBSP / CGH)
08:26AM -22.5450 -45.8680 10° North 233 268 17,100 300 Climbing FlightAware ADS-B (SBSP / CGH)
08:26AM -22.5194 -45.8630 10° North 234 269 17,200 360 Climbing FlightAware ADS-B (SBSP / CGH)
08:27AM -22.4781 -45.8549 10° North 235 270 17,500 480 Climbing FlightAware ADS-B (SBSP / CGH)
08:27AM -22.4468 -45.8489 10° North 235 270 17,700 360 Climbing FlightAware ADS-B (SBSP / CGH)
08:28AM -22.4156 -45.8428 10° North 235 270 17,900 300 Climbing FlightAware ADS-B (SBSP / CGH)
08:28AM -22.3834 -45.8365 10° North 237 273 18,000 300 Climbing FlightAware ADS-B (SBSP / CGH)
08:29AM -22.3486 -45.8297 10° North 237 273 18,200 360 Climbing FlightAware ADS-B (SBSP / CGH)
08:29AM -22.3153 -45.8232 10° North 237 273 18,400 360 Climbing FlightAware ADS-B (SBSP / CGH)
08:30AM -22.2852 -45.8174 10° North 236 272 18,600 360 Climbing FlightAware ADS-B (SBSP / CGH)
08:30AM -22.2473 -45.8100 10° North 238 274 18,800 360 Climbing FlightAware ADS-B (SBSP / CGH)
08:31AM -22.2149 -45.8037 14° North 239 275 19,000 240 Climbing FlightAware ADS-B (SBSP / CGH)
08:31AM -22.1985 -45.7970 27° Northeast 243 280 19,000  Level FlightAware ADS-B (SDAM)
08:32AM -22.1626 -45.7698 35° Northeast 254 292 19,000  Level FlightAware ADS-B (SDAM)
08:32AM -22.1191 -45.7360 36° Northeast 254 292 19,000  Level FlightAware ADS-B (SDAM)
08:33AM -22.0734 -45.7003 36° Northeast 270 311 19,000  Level FlightAware ADS-B (SDAM)
08:34AM -22.0272 -45.6646 35° Northeast 274 315 19,000  Level FlightAware ADS-B (SDAM)
08:35AM -21.9806 -45.6286 35° Northeast 277 319 19,000  Level FlightAware ADS-B (SDAM)
08:35AM -21.9491 -45.6043 35° Northeast 278 320 19,000  Level FlightAware ADS-B (SDAM)
08:36AM -21.9163 -45.5788 35° Northeast 279 321 19,000  Level FlightAware ADS-B (SDAM)
08:36AM -21.8869 -45.5562 35° Northeast 280 322 19,000  Level FlightAware ADS-B (SDAM)
08:37AM -21.8555 -45.5321 35° Northeast 280 322 19,000  Level FlightAware ADS-B (SDAM)
08:37AM -21.8268 -45.5099 35° Northeast 280 322 19,000  Level FlightAware ADS-B (SDAM)
08:38AM -21.7976 -45.4876 35° Northeast 280 322 19,000  Level FlightAware ADS-B (SDAM)
08:38AM -21.7595 -45.4583 35° Northeast 280 322 19,000  Level FlightAware ADS-B (SDAM)
08:39AM -21.7265 -45.4330 35° Northeast 280 322 19,000  Level FlightAware ADS-B (SDAM)
08:39AM -21.6936 -45.4078 35° Northeast 280 322 19,000  Level FlightAware ADS-B (SDAM)
08:40AM -21.6615 -45.3831 35° Northeast 280 322 19,000  Level FlightAware ADS-B (SDAM)
08:40AM -21.6330 -45.3613 35° Northeast 280 322 19,000  Level FlightAware ADS-B (SDAM)
08:41AM -21.6107 -45.3442 35° Northeast 280 322 19,000  Level FlightAware ADS-B (SDAM)
08:41AM -21.5674 -45.3111 35° Northeast 280 322 19,000  Level FlightAware ADS-B (SDAM)
08:42AM -21.5343 -45.2857 35° Northeast 281 323 19,000  Level FlightAware ADS-B (SDAM)
08:42AM -21.5037 -45.2623 35° Northeast 281 323 19,000  Level FlightAware ADS-B (SDAM)
08:43AM -21.4706 -45.2370 35° Northeast 282 325 19,000  Level FlightAware ADS-B (SDAM)
08:43AM -21.4403 -45.2139 35° Northeast 282 325 19,000  Level FlightAware ADS-B (SDAM)
08:44AM -21.4104 -45.1910 35° Northeast 281 323 19,000  Level FlightAware ADS-B (SDAM)
08:44AM -21.3734 -45.1628 35° Northeast 281 323 19,000  Level FlightAware ADS-B (SDAM)
08:45AM -21.3412 -45.1382 35° Northeast 280 322 19,000  Level FlightAware ADS-B (SDAM)
08:45AM -21.3099 -45.1143 35° Northeast 280 322 19,000  Level FlightAware ADS-B (SDAM)
08:45AM -21.2983 -45.1054 35° Northeast 280 322 19,000 -600 Level FlightAware ADS-B (SDAM)
09:05AM -19.9511 -44.2162 16° North 267 307 8,000 -600 Descending FlightAware ADS-B (RKSM / SSN)
09:06AM -19.9144 -44.2046 16° North 264 304 7,400 -840 Descending FlightAware ADS-B (RKSM / SSN)
09:06AM -19.8803 -44.1938 16° North 241 277 7,200 -840 Descending FlightAware ADS-B (RKSM / SSN)
09:07AM -19.8496 -44.1842 16° North 224 258 6,600 -1,320 Descending FlightAware ADS-B (RKSM / SSN)
09:07AM -19.8218 -44.1751 16° North 210 242 5,900 -1,500 Descending FlightAware ADS-B (RKSM / SSN)
09:08AM -19.8029 -44.1558 75° East 196 226 5,100 -1,500 Descending FlightAware ADS-B (RKSM / SSN)
09:08AM -19.7965 -44.1266 77° East 190 219 4,400 -1,020 Descending FlightAware ADS-B (RKSM / SSN)
09:09AM -19.7961 -44.1007 108° East 165 190 4,100 -300 Descending FlightAware ADS-B (RKSM / SSN)
09:09AM -19.8050 -44.0785 111° Southeast 165 190 4,100  Level FlightAware ADS-B (RKSM / SSN)
09:10AM -19.8131 -44.0551 111° Southeast 174 200 4,100 -120 Level FlightAware ADS-B (RKSM / SSN)
09:10AM -19.8216 -44.0315 111° Southeast 166 191 4,000 -600 Descending FlightAware ADS-B (RKSM / SSN)
09:11AM -19.8286 -44.0119 110° East 135 155 3,500 -1,020 Descending FlightAware ADS-B (RKSM / SSN)
09:11AM -19.8347 -43.9945 111° Southeast 115 132 3,000 -900 Descending FlightAware ADS-B (RKSM / SSN)
09:11AM -19.8387 -43.9836 111° Southeast 114 131 2,700 -660 Descending FlightAware ADS-B (RKSM / SSN)
09:12AM -19.8424 -43.9734 111° Southeast 115 132 2,500 -600 Descending FlightAware ADS-B (RKSM / SSN)
09:15AM -19.8512 -43.9506 112° Southeast  Level Estimated
09:16AM -19.8512 -43.9506 North  Level Estimated
09:17AM -19.8512 -43.9506 North  Level Estimated
09:18AM -19.8512 -43.9506 North  Level Estimated
09:19AM -19.8512 -43.9506 North  Level Estimated
09:20AM -19.8512 -43.9506 North  Level Estimated
09:21AM -19.8512 -43.9506 North  Level Estimated
09:22AM -19.8512 -43.9506 North  Level Estimated
09:23AM -19.8512 -43.9506 North  Level Estimated
09:24AM -19.8512 -43.9506 North  Level Estimated
09:25AM -19.8512 -43.9506 North  Level Estimated
09:26AM -19.8512 -43.9506 North  Level Estimated
09:27AM -19.8512 -43.9506 North  Level Estimated
09:28AM -19.8512 -43.9506 North  Level Estimated
09:29AM -19.8512 -43.9506 North  Level Estimated
09:30AM -19.8512 -43.9506 North  Level Estimated
09:31AM -19.8512 -43.9506 North  Level Estimated
09:32AM -19.8512 -43.9506 North  Level Estimated
09:33AM -19.8512 -43.9506 North  Level Estimated
09:34AM -19.8512 -43.9506 North  Level Estimated
09:35AM -19.8512 -43.9506 North  Level Estimated
09:36AM -19.8512 -43.9506 North  Level Estimated
09:37AM -19.8512 -43.9506 North  Level Estimated
09:38AM -19.8512 -43.9506 North  Level Estimated
09:39AM -19.8512 -43.9506 North  Level Estimated
09:40AM -19.8512 -43.9506 North  Level Estimated
09:41AM -19.8512 -43.9506 North  Level Estimated
09:42AM -19.8512 -43.9506 North  Level Estimated
09:43AM -19.8512 -43.9506 North  Level Estimated